Time;durP1;ratioP1;P1;durP2;ratioP2;P2;SDS_P1;SDS_P2;PMS_P1;PMS_P2;Temp;Humidity;BMP_temperature;BMP_pressure;BME280_temperature;BME280_humidity;BME280_pressure;Samples;Min_cycle;Max_cycle;Signal;HPM_P1;HPM_P2
2021/07/07 00:01:27;;;;;;;3.03;2.53;;;16.50;61.80;;;;;;5085851;27;20675;-71
2021/07/07 00:04:15;;;;;;;4.20;2.50;;;16.50;61.10;;;;;;5103737;27;20040;-72
2021/07/07 00:07:04;;;;;;;4.85;2.70;;;16.50;60.60;;;;;;5107346;27;20113;-73
2021/07/07 00:09:52;;;;;;;6.72;2.80;;;16.50;61.10;;;;;;5100824;27;20040;-73
2021/07/07 00:12:41;;;;;;;3.17;2.80;;;16.50;61.70;;;;;;5106649;27;20101;-73
2021/07/07 00:15:33;;;;;;;8.57;2.80;;;16.60;62.60;;;;;;5104082;27;20044;-73
2021/07/07 00:18:22;;;;;;;5.22;3.25;;;16.40;62.10;;;;;;5102880;27;20048;-73
2021/07/07 00:21:11;;;;;;;3.85;3.20;;;16.30;62.50;;;;;;5104536;27;20047;-72
2021/07/07 00:23:59;;;;;;;4.28;3.10;;;16.40;63.40;;;;;;5103786;27;20071;-73
2021/07/07 00:26:48;;;;;;;5.32;2.97;;;16.50;62.30;;;;;;5108057;27;20048;-71
2021/07/07 00:29:36;;;;;;;4.68;2.90;;;16.40;61.50;;;;;;5107090;27;20529;-72
2021/07/07 00:32:26;;;;;;;6.85;3.25;;;16.30;62.00;;;;;;5108780;27;20067;-71
2021/07/07 00:35:24;;;;;;;3.22;2.90;;;16.50;63.50;;;;;;5104209;27;20043;-72
2021/07/07 00:38:13;;;;;;;6.28;3.13;;;16.30;61.20;;;;;;5103425;27;20055;-72
2021/07/07 00:41:02;;;;;;;6.63;3.33;;;16.20;61.90;;;;;;5103895;27;20360;-72
2021/07/07 00:43:50;;;;;;;3.63;2.67;;;16.30;63.40;;;;;;5109985;27;20570;-73
2021/07/07 00:46:39;;;;;;;5.13;3.00;;;16.20;64.10;;;;;;5105213;27;20060;-70
2021/07/07 00:49:29;;;;;;;6.30;4.03;;;16.20;64.80;;;;;;5109280;27;20039;-71
2021/07/07 00:52:19;;;;;;;8.02;4.28;;;16.20;64.40;;;;;;5102365;27;20048;-72
2021/07/07 00:55:10;;;;;;;7.32;4.22;;;16.20;65.30;;;;;;5102347;27;20052;-72
2021/07/07 00:58:00;;;;;;;5.45;4.30;;;16.20;65.40;;;;;;5106550;27;20203;-71
2021/07/07 01:00:49;;;;;;;7.50;5.10;;;16.30;65.80;;;;;;5097703;27;20568;-71
2021/07/07 01:03:37;;;;;;;7.68;5.40;;;16.30;65.70;;;;;;5105195;27;20532;-71
2021/07/07 01:06:27;;;;;;;8.02;5.07;;;16.30;65.90;;;;;;5107224;27;20043;-72
2021/07/07 01:09:16;;;;;;;11.02;5.93;;;16.40;66.10;;;;;;5102239;27;20433;-72
2021/07/07 01:12:04;;;;;;;8.00;5.30;;;16.40;66.00;;;;;;5103987;27;20069;-72
2021/07/07 01:14:54;;;;;;;9.00;5.85;;;16.30;65.20;;;;;;5102328;27;20063;-72
2021/07/07 01:17:43;;;;;;;7.18;5.22;;;16.30;65.50;;;;;;5109972;27;20062;-72
2021/07/07 01:20:32;;;;;;;8.85;5.95;;;16.30;65.40;;;;;;5107283;27;20104;-72
2021/07/07 01:23:22;;;;;;;10.85;6.30;;;16.30;65.90;;;;;;5108617;27;20048;-72
2021/07/07 01:26:10;;;;;;;9.48;5.93;;;16.20;65.10;;;;;;5103016;27;20288;-72
2021/07/07 01:28:59;;;;;;;9.73;6.53;;;16.20;65.80;;;;;;5100558;27;20402;-72
2021/07/07 01:31:47;;;;;;;9.15;6.72;;;16.20;66.10;;;;;;5088123;28;20059;-72
2021/07/07 01:34:36;;;;;;;11.18;7.68;;;16.20;66.00;;;;;;5104118;27;20050;-71
2021/07/07 01:37:26;;;;;;;9.27;5.85;;;16.20;66.40;;;;;;5107159;27;20123;-72
2021/07/07 01:40:20;;;;;;;12.43;7.20;;;16.20;67.10;;;;;;5098924;27;20110;-71
2021/07/07 01:43:08;;;;;;;9.25;7.55;;;16.10;67.00;;;;;;5101809;27;20052;-71
2021/07/07 01:45:57;;;;;;;11.70;7.50;;;16.20;67.50;;;;;;5104999;27;20031;-71
2021/07/07 01:48:45;;;;;;;12.13;8.20;;;16.20;67.40;;;;;;5102077;27;20043;-72
2021/07/07 01:51:35;;;;;;;8.45;6.82;;;16.10;67.30;;;;;;5102390;27;20043;-72
2021/07/07 01:54:24;;;;;;;10.25;7.63;;;16.20;67.50;;;;;;5103765;27;20051;-72
2021/07/07 01:57:14;;;;;;;10.57;7.40;;;16.10;67.40;;;;;;5102458;27;20039;-72
2021/07/07 02:00:03;;;;;;;7.50;6.28;;;16.10;67.30;;;;;;5103633;27;20581;-72
2021/07/07 02:02:53;;;;;;;7.97;6.05;;;16.20;67.50;;;;;;5108722;27;20065;-72
2021/07/07 02:05:42;;;;;;;10.25;5.97;;;16.00;67.30;;;;;;5103157;27;20043;-72
2021/07/07 02:08:30;;;;;;;9.95;5.60;;;16.10;67.40;;;;;;5102621;27;20051;-72
2021/07/07 02:11:18;;;;;;;6.38;5.78;;;16.00;67.40;;;;;;5101741;27;20517;-70
2021/07/07 02:14:08;;;;;;;8.20;5.55;;;16.10;67.70;;;;;;5108379;27;20040;-72
2021/07/07 02:16:56;;;;;;;8.85;5.15;;;16.10;67.40;;;;;;5091218;27;20054;-72
2021/07/07 02:19:45;;;;;;;7.85;5.30;;;16.10;67.40;;;;;;5101826;27;20171;-71
2021/07/07 02:22:33;;;;;;;10.90;6.68;;;16.10;67.40;;;;;;5080212;27;20502;-71
2021/07/07 02:25:24;;;;;;;10.27;7.13;;;16.10;67.80;;;;;;5087369;28;20701;-71
2021/07/07 02:28:14;;;;;;;8.80;7.10;;;16.10;67.90;;;;;;5109988;27;20123;-71
2021/07/07 02:31:04;;;;;;;11.07;7.88;;;16.10;67.80;;;;;;5099215;27;20048;-72
2021/07/07 02:33:52;;;;;;;11.63;8.25;;;16.10;68.20;;;;;;5101300;27;20518;-70
2021/07/07 02:36:41;;;;;;;11.68;7.53;;;16.00;68.50;;;;;;5103611;28;20482;-70
2021/07/07 02:39:29;;;;;;;11.65;8.05;;;15.90;68.30;;;;;;5107693;27;20113;-72
2021/07/07 02:42:18;;;;;;;9.88;7.10;;;15.90;68.40;;;;;;5102825;27;20047;-71
2021/07/07 02:45:08;;;;;;;9.43;6.40;;;15.80;68.70;;;;;;5098876;27;20062;-71
2021/07/07 02:47:58;;;;;;;10.05;6.40;;;15.80;69.00;;;;;;5089088;28;20054;-71
2021/07/07 02:50:49;;;;;;;10.10;6.55;;;15.90;69.20;;;;;;5105861;28;20055;-70
2021/07/07 02:53:37;;;;;;;9.52;6.57;;;15.80;69.20;;;;;;5106632;27;20052;-70
2021/07/07 02:56:25;;;;;;;10.27;7.07;;;15.90;70.00;;;;;;5102551;28;20565;-71
2021/07/07 02:59:14;;;;;;;8.95;6.55;;;15.90;69.50;;;;;;5101594;28;20495;-70
2021/07/07 03:02:02;;;;;;;9.88;6.85;;;15.80;69.40;;;;;;5106971;28;20048;-71
2021/07/07 03:04:52;;;;;;;7.65;5.95;;;15.90;69.60;;;;;;5110847;28;20042;-70
2021/07/07 03:07:40;;;;;;;9.05;7.43;;;15.80;69.40;;;;;;5099853;28;20135;-70
2021/07/07 03:10:29;;;;;;;9.65;6.97;;;15.90;69.60;;;;;;5083226;28;20498;-70
2021/07/07 03:13:18;;;;;;;7.88;6.78;;;16.00;69.80;;;;;;5106706;28;20495;-71
2021/07/07 03:16:07;;;;;;;9.27;6.38;;;16.00;69.80;;;;;;5104883;28;20514;-70
2021/07/07 03:18:55;;;;;;;12.40;7.53;;;15.90;69.70;;;;;;5106003;28;20066;-71
2021/07/07 03:21:45;;;;;;;7.75;6.20;;;15.90;69.80;;;;;;5101710;28;20054;-71
2021/07/07 03:24:33;;;;;;;7.93;5.43;;;15.90;69.80;;;;;;5104659;28;20043;-71
2021/07/07 03:27:22;;;;;;;6.68;4.93;;;15.90;69.40;;;;;;5106605;28;20036;-71
2021/07/07 03:30:11;;;;;;;10.77;5.10;;;15.90;68.60;;;;;;5100526;28;20058;-71
2021/07/07 03:33:00;;;;;;;4.85;2.70;;;15.80;67.50;;;;;;5099777;28;20690;-71
2021/07/07 03:35:51;;;;;;;7.55;2.65;;;15.80;67.00;;;;;;5102419;28;20414;-71
2021/07/07 03:38:40;;;;;;;4.20;2.58;;;15.80;65.60;;;;;;5102029;28;20062;-71
2021/07/07 03:41:30;;;;;;;4.75;3.00;;;15.80;62.90;;;;;;5100633;28;20086;-70
2021/07/07 03:44:19;;;;;;;2.63;2.15;;;15.90;64.40;;;;;;5097228;28;20106;-71
2021/07/07 03:47:07;;;;;;;2.63;2.20;;;15.70;63.30;;;;;;5103400;28;20048;-71
2021/07/07 03:49:56;;;;;;;2.35;2.15;;;15.70;63.70;;;;;;5097370;28;20665;-71
2021/07/07 03:52:45;;;;;;;2.20;2.00;;;15.70;62.70;;;;;;5104229;28;20122;-71
2021/07/07 03:55:35;;;;;;;3.08;2.47;;;15.70;62.70;;;;;;5106451;28;20491;-70
2021/07/07 03:58:24;;;;;;;3.83;2.88;;;15.80;62.00;;;;;;5104428;28;20051;-70
2021/07/07 04:01:13;;;;;;;3.45;2.83;;;15.80;62.80;;;;;;5105914;28;20051;-70
2021/07/07 04:04:01;;;;;;;5.70;3.08;;;15.70;62.80;;;;;;5089055;28;20040;-70
2021/07/07 04:06:50;;;;;;;8.35;3.10;;;15.80;63.60;;;;;;5099712;28;20392;-70
2021/07/07 04:09:38;;;;;;;4.53;3.08;;;15.80;64.00;;;;;;5107745;28;20075;-71
2021/07/07 04:12:28;;;;;;;6.82;3.58;;;15.80;63.60;;;;;;5106085;27;20050;-70
2021/07/07 04:15:17;;;;;;;4.13;3.10;;;15.80;63.50;;;;;;5102054;27;20387;-71
2021/07/07 04:18:08;;;;;;;6.13;3.30;;;15.90;63.80;;;;;;5104029;27;20392;-71
2021/07/07 04:20:57;;;;;;;3.58;3.28;;;15.80;63.40;;;;;;5104649;27;20050;-71
2021/07/07 04:23:46;;;;;;;4.32;3.70;;;15.90;64.10;;;;;;5106571;27;20624;-70
2021/07/07 04:26:34;;;;;;;3.67;3.17;;;15.80;64.00;;;;;;5091138;27;20185;-70
2021/07/07 04:29:24;;;;;;;3.30;2.92;;;15.80;64.70;;;;;;5107067;27;20149;-72
2021/07/07 04:32:12;;;;;;;3.85;2.95;;;15.80;64.60;;;;;;5108796;27;20049;-72
2021/07/07 04:35:00;;;;;;;4.10;2.80;;;15.90;64.80;;;;;;5107482;27;20057;-71
2021/07/07 04:37:50;;;;;;;2.92;2.58;;;15.90;63.20;;;;;;5108947;27;20576;-71
2021/07/07 04:40:39;;;;;;;5.05;2.40;;;15.90;62.90;;;;;;5102524;27;20161;-71
2021/07/07 04:43:28;;;;;;;3.50;2.88;;;16.00;63.00;;;;;;5109157;27;20115;-71
2021/07/07 04:46:17;;;;;;;3.97;3.55;;;16.00;62.80;;;;;;5115804;27;20420;-72
2021/07/07 04:49:06;;;;;;;3.63;3.30;;;15.90;65.70;;;;;;5105366;27;20044;-71
2021/07/07 04:51:54;;;;;;;4.85;3.90;;;15.90;67.10;;;;;;5091522;27;20062;-72
2021/07/07 04:54:43;;;;;;;5.35;4.10;;;15.90;67.60;;;;;;5105651;27;20406;-71
2021/07/07 04:57:40;;;;;;;7.10;4.35;;;15.80;68.60;;;;;;5108568;27;20078;-71
2021/07/07 05:00:28;;;;;;;4.03;3.53;;;15.80;68.10;;;;;;5108099;27;20044;-70
2021/07/07 05:03:18;;;;;;;5.93;3.65;;;15.80;68.10;;;;;;5105227;27;20140;-71
2021/07/07 05:06:07;;;;;;;4.22;3.55;;;15.90;67.80;;;;;;5103682;27;20055;-71
2021/07/07 05:08:56;;;;;;;5.32;3.28;;;15.90;67.40;;;;;;5108003;27;20040;-70
2021/07/07 05:11:44;;;;;;;7.88;4.13;;;15.80;67.40;;;;;;5103257;27;20140;-70
2021/07/07 05:14:34;;;;;;;4.70;2.45;;;15.80;68.10;;;;;;5108547;27;20107;-71
2021/07/07 05:17:24;;;;;;;3.85;2.30;;;16.00;67.20;;;;;;5103480;27;20051;-71
2021/07/07 05:20:14;;;;;;;5.50;2.38;;;16.10;63.80;;;;;;5099619;27;20062;-71
2021/07/07 05:23:06;;;;;;;3.40;2.10;;;16.10;61.50;;;;;;5106444;27;20044;-70
2021/07/07 05:25:55;;;;;;;3.35;2.38;;;16.10;61.40;;;;;;5102261;27;20051;-71
2021/07/07 05:28:43;;;;;;;4.75;2.03;;;16.00;63.00;;;;;;5107479;27;20040;-71
2021/07/07 05:31:33;;;;;;;5.88;2.42;;;15.90;61.40;;;;;;5104192;27;20055;-70
2021/07/07 05:34:21;;;;;;;6.88;2.90;;;16.00;63.00;;;;;;5099683;27;20055;-71
2021/07/07 05:37:11;;;;;;;5.75;3.50;;;16.10;65.20;;;;;;5103426;27;21130;-70
2021/07/07 05:40:00;;;;;;;5.78;3.50;;;16.20;65.60;;;;;;5108541;27;20046;-71
2021/07/07 05:42:52;;;;;;;4.88;3.22;;;16.20;64.90;;;;;;5105130;27;20047;-71
2021/07/07 05:45:40;;;;;;;4.65;2.70;;;16.20;64.60;;;;;;5104912;27;20043;-71
2021/07/07 05:48:29;;;;;;;6.00;3.35;;;16.30;63.20;;;;;;5103792;27;20044;-70
2021/07/07 05:51:18;;;;;;;5.97;2.92;;;16.50;61.50;;;;;;5105627;27;20048;-71
2021/07/07 05:54:08;;;;;;;6.40;5.28;;;16.70;60.80;;;;;;5104104;27;20074;-72
2021/07/07 05:56:56;;;;;;;3.33;3.00;;;16.60;58.60;;;;;;5102614;27;20048;-71
2021/07/07 05:59:44;;;;;;;2.35;2.05;;;16.50;59.20;;;;;;5100899;27;20043;-71
2021/07/07 06:02:33;;;;;;;4.15;2.17;;;16.30;57.00;;;;;;5107996;27;20944;-71
2021/07/07 06:05:22;;;;;;;4.93;2.40;;;16.20;55.00;;;;;;5107755;27;20043;-71
2021/07/07 06:08:10;;;;;;;2.30;1.58;;;16.30;58.50;;;;;;5088422;27;20044;-70
2021/07/07 06:11:00;;;;;;;3.72;2.45;;;16.20;55.50;;;;;;5101532;27;20134;-70
2021/07/07 06:13:49;;;;;;;4.57;2.55;;;16.40;54.60;;;;;;5090992;27;20567;-71
2021/07/07 06:16:37;;;;;;;2.58;2.20;;;16.50;57.20;;;;;;5100654;27;20055;-72
2021/07/07 06:19:26;;;;;;;4.22;2.45;;;16.50;56.70;;;;;;5103352;27;20040;-71
2021/07/07 06:22:14;;;;;;;2.63;1.80;;;16.80;58.20;;;;;;5105847;27;20410;-72
2021/07/07 06:25:03;;;;;;;2.22;1.92;;;16.70;51.20;;;;;;5098205;27;20052;-71
2021/07/07 06:27:53;;;;;;;2.45;2.00;;;16.80;52.60;;;;;;5102734;27;20039;-71
2021/07/07 06:30:41;;;;;;;5.55;2.50;;;16.80;52.00;;;;;;5101114;27;20054;-71
2021/07/07 06:33:30;;;;;;;3.88;2.10;;;16.80;53.10;;;;;;5105926;27;20051;-71
2021/07/07 06:36:18;;;;;;;4.03;2.50;;;16.80;49.40;;;;;;5103034;27;20074;-70
2021/07/07 06:39:07;;;;;;;5.88;1.75;;;16.70;50.10;;;;;;5101615;27;20048;-71
2021/07/07 06:41:55;;;;;;;3.00;2.55;;;16.50;49.90;;;;;;5099060;27;20059;-70
2021/07/07 06:44:45;;;;;;;3.85;2.35;;;16.70;52.30;;;;;;5104254;27;20097;-71
2021/07/07 06:47:34;;;;;;;4.15;2.72;;;16.70;53.00;;;;;;5105955;27;20519;-70
2021/07/07 06:50:24;;;;;;;4.60;2.40;;;16.70;53.20;;;;;;5101535;27;20092;-71
2021/07/07 06:53:12;;;;;;;2.50;2.30;;;16.70;55.40;;;;;;5103623;27;20039;-71
2021/07/07 06:56:01;;;;;;;3.03;2.53;;;16.80;57.40;;;;;;5106150;27;20043;-72
2021/07/07 06:58:49;;;;;;;3.42;2.33;;;16.70;58.00;;;;;;5105060;28;20039;-71
2021/07/07 07:01:39;;;;;;;3.17;2.17;;;16.50;58.00;;;;;;5088440;28;20396;-72
2021/07/07 07:04:27;;;;;;;2.67;2.30;;;16.60;59.40;;;;;;5103898;28;20059;-71
2021/07/07 07:07:16;;;;;;;6.97;3.50;;;16.50;55.90;;;;;;5109926;28;20055;-71
2021/07/07 07:10:05;;;;;;;4.78;3.30;;;16.70;59.00;;;;;;5096209;28;20505;-71
2021/07/07 07:12:54;;;;;;;5.28;2.88;;;16.70;59.40;;;;;;5102892;28;20043;-71
2021/07/07 07:15:46;;;;;;;3.50;2.50;;;16.80;58.70;;;;;;5108857;28;20040;-71
2021/07/07 07:18:36;;;;;;;5.15;2.70;;;16.60;58.50;;;;;;5106798;28;20059;-72
2021/07/07 07:21:25;;;;;;;5.35;3.05;;;16.70;59.00;;;;;;5097318;28;20062;-71
2021/07/07 07:24:13;;;;;;;3.45;2.55;;;16.70;59.40;;;;;;5098910;28;20190;-72
2021/07/07 07:27:02;;;;;;;3.78;2.58;;;16.70;58.50;;;;;;5101753;28;20052;-71
2021/07/07 07:29:50;;;;;;;4.00;2.80;;;16.70;55.60;;;;;;5100407;28;20566;-71
2021/07/07 07:32:39;;;;;;;5.63;2.95;;;16.80;56.40;;;;;;5105899;28;20676;-71
2021/07/07 07:35:28;;;;;;;2.88;2.17;;;16.80;56.60;;;;;;5103854;28;20052;-70
2021/07/07 07:38:26;;;;;;;5.57;3.05;;;16.90;55.40;;;;;;5104243;28;20126;-72
2021/07/07 07:41:19;;;;;;;5.38;2.22;;;17.10;55.10;;;;;;5099828;28;20043;-71
2021/07/07 07:44:09;;;;;;;3.83;2.60;;;17.00;52.30;;;;;;5075889;28;20035;-71
2021/07/07 07:46:59;;;;;;;7.45;2.70;;;17.00;51.60;;;;;;5079837;27;20047;-71
2021/07/07 07:49:48;;;;;;;3.05;1.85;;;17.20;50.30;;;;;;5109379;27;20039;-71
2021/07/07 07:52:37;;;;;;;3.50;2.40;;;17.20;44.60;;;;;;5105035;27;20798;-70
2021/07/07 07:55:26;;;;;;;5.03;2.35;;;17.30;46.90;;;;;;5105278;27;20043;-71
2021/07/07 07:58:17;;;;;;;3.38;2.40;;;17.30;42.00;;;;;;5092678;27;20040;-71
2021/07/07 08:01:06;;;;;;;3.35;2.35;;;17.40;48.20;;;;;;5106818;27;20575;-71
2021/07/07 08:03:54;;;;;;;5.38;2.30;;;17.50;46.50;;;;;;5106964;27;20533;-71
2021/07/07 08:06:42;;;;;;;2.83;1.70;;;17.50;42.30;;;;;;5107361;27;20129;-72
2021/07/07 08:09:32;;;;;;;4.80;1.95;;;17.50;33.50;;;;;;5106759;27;20430;-72
2021/07/07 08:12:22;;;;;;;3.38;1.35;;;17.60;34.00;;;;;;5114196;27;20531;-72
2021/07/07 08:15:10;;;;;;;2.78;1.90;;;17.70;30.90;;;;;;5104886;27;20589;-71
2021/07/07 08:17:59;;;;;;;11.20;2.08;;;18.20;35.70;;;;;;5107769;27;20039;-72
2021/07/07 08:20:47;;;;;;;5.82;3.00;;;18.30;33.20;;;;;;5106783;27;20067;-72
2021/07/07 08:23:37;;;;;;;3.05;1.52;;;18.30;32.20;;;;;;5104773;27;20489;-71
2021/07/07 08:26:26;;;;;;;2.45;1.60;;;18.30;32.00;;;;;;5109189;27;20050;-73
2021/07/07 08:29:15;;;;;;;3.53;2.00;;;18.10;36.00;;;;;;5103148;27;20043;-72
2021/07/07 08:32:04;;;;;;;4.35;1.65;;;18.10;35.70;;;;;;5103041;27;20062;-72
2021/07/07 08:34:52;;;;;;;3.50;1.80;;;18.20;38.30;;;;;;5097346;27;20047;-72
2021/07/07 08:37:42;;;;;;;4.03;2.17;;;18.40;38.50;;;;;;5110118;27;20064;-72
2021/07/07 08:40:30;;;;;;;2.10;1.38;;;18.20;40.30;;;;;;5107085;27;20429;-72
2021/07/07 08:43:20;;;;;;;3.00;1.52;;;17.90;38.30;;;;;;5101684;27;20413;-72
2021/07/07 08:46:09;;;;;;;3.03;1.63;;;17.90;39.20;;;;;;5106558;27;20512;-72
2021/07/07 08:48:57;;;;;;;2.25;1.80;;;17.60;36.90;;;;;;5112181;27;20047;-70
2021/07/07 08:51:45;;;;;;;3.35;1.80;;;17.80;39.00;;;;;;5101809;27;20047;-71
2021/07/07 08:54:34;;;;;;;2.95;1.90;;;17.90;43.50;;;;;;5104171;27;20047;-72
2021/07/07 08:57:22;;;;;;;4.65;2.15;;;18.00;41.20;;;;;;5106104;27;20056;-72
2021/07/07 09:00:16;;;;;;;4.80;2.00;;;17.90;30.90;;;;;;5105362;27;20415;-72
2021/07/07 09:03:09;;;;;;;4.72;2.05;;;18.10;35.70;;;;;;5107317;27;20102;-71
2021/07/07 09:06:00;;;;;;;3.30;1.98;;;17.60;35.20;;;;;;5104491;27;20051;-71
2021/07/07 09:08:50;;;;;;;4.93;2.10;;;17.70;37.60;;;;;;5101178;27;20039;-72
2021/07/07 09:11:43;;;;;;;6.00;2.17;;;18.20;40.40;;;;;;5086462;27;20043;-71
2021/07/07 09:14:33;;;;;;;3.70;2.17;;;18.50;36.50;;;;;;5102383;27;20105;-71
2021/07/07 09:17:23;;;;;;;15.65;12.45;;;18.40;30.30;;;;;;5088379;27;20533;-72
2021/07/07 09:20:19;;;;;;;4.35;2.10;;;18.60;31.70;;;;;;5102255;27;20108;-71
2021/07/07 09:23:15;;;;;;;4.35;1.85;;;18.70;31.50;;;;;;5098881;27;20082;-72
2021/07/07 09:26:06;;;;;;;6.85;2.10;;;18.10;28.20;;;;;;5102872;27;20177;-72
2021/07/07 09:28:55;;;;;;;4.95;1.98;;;18.50;27.20;;;;;;5106248;27;20413;-71
2021/07/07 09:31:43;;;;;;;7.82;2.10;;;18.50;29.00;;;;;;5101418;27;20062;-72
2021/07/07 09:34:38;;;;;;;4.75;2.05;;;18.50;29.20;;;;;;5099295;27;20048;-72
2021/07/07 09:37:28;;;;;;;;;;;18.40;29.00;;;;;;5100840;27;20052;-72
2021/07/07 09:40:17;;;;;;;4.95;2.58;;;18.60;29.70;;;;;;5105245;27;20484;-72
2021/07/07 09:43:06;;;;;;;4.57;2.35;;;18.60;30.00;;;;;;5106480;27;20054;-72
2021/07/07 09:45:54;;;;;;;7.90;2.10;;;18.80;31.00;;;;;;5105054;27;20426;-71
2021/07/07 09:48:42;;;;;;;6.93;2.20;;;18.90;28.20;;;;;;5103690;27;20078;-72
2021/07/07 09:51:33;;;;;;;5.82;2.75;;;19.00;28.20;;;;;;5085712;27;20518;-73
2021/07/07 09:54:22;;;;;;;5.78;2.20;;;19.20;24.40;;;;;;5107567;27;20043;-72
2021/07/07 09:57:11;;;;;;;4.22;2.08;;;19.20;26.90;;;;;;5102015;27;20062;-70
2021/07/07 09:59:59;;;;;;;2.72;1.67;;;19.00;25.80;;;;;;5098828;27;20047;-72
2021/07/07 10:02:49;;;;;;;2.42;2.00;;;19.20;25.90;;;;;;5106435;27;20071;-71
2021/07/07 10:05:41;;;;;;;3.30;1.88;;;19.00;26.40;;;;;;5106031;27;20073;-72
2021/07/07 10:08:31;;;;;;;3.25;1.55;;;19.20;18.40;;;;;;5106309;27;20160;-72
2021/07/07 10:11:20;;;;;;;4.10;2.03;;;19.30;20.70;;;;;;5096166;27;20056;-72
2021/07/07 10:14:11;;;;;;;6.32;1.80;;;19.30;17.80;;;;;;5104289;27;20140;-71
2021/07/07 10:17:00;;;;;;;11.43;6.43;;;19.00;15.10;;;;;;5104788;27;20067;-72
2021/07/07 10:19:49;;;;;;;2.83;1.48;;;19.10;19.10;;;;;;5114132;27;20042;-72
2021/07/07 10:22:38;;;;;;;8.40;1.83;;;19.60;12.50;;;;;;5105104;27;20059;-71
2021/07/07 10:25:30;;;;;;;3.78;1.70;;;19.70;13.10;;;;;;5084546;27;20107;-72
2021/07/07 10:28:19;;;;;;;6.30;1.88;;;19.40;8.00;;;;;;5103331;27;20395;-71
2021/07/07 10:31:08;;;;;;;6.25;2.05;;;19.70;11.60;;;;;;5104756;27;20051;-71
2021/07/07 10:34:01;;;;;;;3.85;1.83;;;20.10;12.30;;;;;;5096763;27;20043;-72
2021/07/07 10:36:50;;;;;;;4.38;1.70;;;20.50;9.70;;;;;;5097137;27;20043;-72
2021/07/07 10:39:39;;;;;;;4.70;1.60;;;20.20;5.00;;;;;;5102137;27;20048;-70
2021/07/07 10:45:33;;;;;;;3.42;1.77;;;20.00;4.90;;;;;;5160923;27;20190;-71
2021/07/07 10:48:27;;;;;;;5.85;1.95;;;20.10;5.10;;;;;;5125412;27;20123;-71
2021/07/07 10:51:27;;;;;;;9.23;1.90;;;20.10;1.40;;;;;;5123799;27;20051;-70
2021/07/07 10:54:23;;;;;;;3.92;1.75;;;20.10;3.60;;;;;;5108258;27;20036;-70
2021/07/07 10:57:21;;;;;;;5.65;2.28;;;20.30;4.80;;;;;;5126343;27;20070;-71
2021/07/07 11:00:29;;;;;;;4.57;1.67;;;20.00;6.40;;;;;;5122602;27;20051;-70
2021/07/07 11:03:32;;;;;;;4.15;1.48;;;20.50;3.70;;;;;;5124517;27;20538;-71
2021/07/07 11:06:28;;;;;;;5.47;1.58;;;20.40;3.70;;;;;;5114990;27;20075;-70
2021/07/07 11:09:18;;;;;;;3.35;1.17;;;20.80;3.90;;;;;;5125358;27;20284;-70
2021/07/07 11:12:06;;;;;;;4.20;1.50;;;21.20;2.80;;;;;;5120839;27;20524;-70
2021/07/07 11:15:03;;;;;;;4.78;1.77;;;20.40;2.20;;;;;;5123364;27;20053;-71
2021/07/07 11:17:53;;;;;;;8.50;1.98;;;20.40;2.70;;;;;;5128326;27;20069;-71
2021/07/07 11:21:06;;;;;;;3.08;1.88;;;20.50;1.30;;;;;;5123451;27;20043;-71
2021/07/07 11:23:54;;;;;;;3.88;1.67;;;20.90;3.70;;;;;;5129576;27;20039;-71
2021/07/07 11:26:43;;;;;;;4.10;1.60;;;20.80;2.60;;;;;;5119457;27;20073;-70
2021/07/07 11:29:32;;;;;;;3.33;1.58;;;20.50;3.90;;;;;;5114240;27;20495;-72
2021/07/07 11:32:25;;;;;;;3.70;1.50;;;20.70;3.80;;;;;;5122648;27;20082;-71
2021/07/07 11:35:15;;;;;;;5.82;1.95;;;20.90;3.50;;;;;;5127409;27;20050;-70
2021/07/07 11:38:06;;;;;;;5.53;1.77;;;20.50;1.90;;;;;;5126176;27;20054;-72
2021/07/07 11:40:56;;;;;;;3.83;1.60;;;20.70;1.30;;;;;;5125912;27;20132;-72
2021/07/07 11:43:45;;;;;;;2.90;1.80;;;20.50;1.00;;;;;;5122094;27;20047;-72
2021/07/07 11:46:33;;;;;;;6.70;2.05;;;20.70;2.30;;;;;;5122930;27;20051;-70
2021/07/07 11:49:22;;;;;;;5.50;1.88;;;20.80;1.00;;;;;;5118138;27;20043;-72
2021/07/07 11:52:11;;;;;;;3.92;1.42;;;21.50;1.00;;;;;;5118744;27;20051;-71
2021/07/07 11:55:01;;;;;;;6.07;1.80;;;21.00;1.00;;;;;;5123017;27;20039;-71
2021/07/07 11:57:49;;;;;;;7.95;2.08;;;21.40;1.00;;;;;;5109296;27;20605;-73
2021/07/07 12:00:38;;;;;;;2.35;1.23;;;21.90;1.00;;;;;;5101862;27;20048;-71
2021/07/07 12:03:27;;;;;;;5.00;1.67;;;22.20;1.00;;;;;;5107204;27;20490;-73
2021/07/07 12:06:19;;;;;;;1.83;1.10;;;22.30;1.00;;;;;;5104535;27;20048;-71
2021/07/07 12:09:16;;;;;;;3.90;1.45;;;21.60;1.00;;;;;;5115875;27;20052;-71
2021/07/07 12:12:08;;;;;;;3.42;1.55;;;21.80;1.00;;;;;;5105195;27;20121;-72
2021/07/07 12:14:56;;;;;;;3.63;1.60;;;22.20;1.00;;;;;;5095699;27;20035;-72
2021/07/07 12:17:45;;;;;;;2.22;1.30;;;22.80;1.00;;;;;;5109616;27;20051;-71
2021/07/07 12:20:36;;;;;;;4.28;1.33;;;22.70;1.00;;;;;;5103998;27;20522;-71
2021/07/07 12:23:25;;;;;;;2.90;1.10;;;22.70;1.00;;;;;;5109113;27;20050;-71
2021/07/07 12:26:19;;;;;;;3.03;1.20;;;22.60;1.00;;;;;;5112682;27;20051;-71
2021/07/07 12:29:12;;;;;;;3.42;1.33;;;22.50;1.00;;;;;;5107504;27;20495;-71
2021/07/07 12:32:03;;;;;;;3.38;1.10;;;22.80;1.00;;;;;;5108949;27;20040;-70
2021/07/07 12:34:53;;;;;;;2.08;1.10;;;21.80;1.00;;;;;;5098646;27;20506;-72
2021/07/07 12:37:42;;;;;;;3.47;1.55;;;21.50;1.00;;;;;;5110455;27;20510;-71
2021/07/07 12:40:30;;;;;;;3.60;2.28;;;21.90;1.00;;;;;;5109900;27;20054;-71
2021/07/07 12:43:29;;;;;;;3.63;1.50;;;22.40;1.00;;;;;;5105687;27;20126;-71
2021/07/07 12:46:19;;;;;;;5.03;1.30;;;22.50;1.00;;;;;;5106675;27;20448;-71
2021/07/07 12:49:07;;;;;;;2.70;1.17;;;22.70;1.00;;;;;;5111840;27;20044;-72
2021/07/07 12:51:56;;;;;;;2.72;1.50;;;22.50;1.00;;;;;;5109251;27;20090;-72
2021/07/07 12:54:44;;;;;;;5.40;1.27;;;21.90;1.00;;;;;;5109178;27;20052;-71
2021/07/07 12:57:49;;;;;;;2.70;1.27;;;21.30;1.00;;;;;;5106616;27;20048;-71
2021/07/07 13:00:43;;;;;;;2.35;1.27;;;21.60;1.00;;;;;;5104987;27;20047;-71
2021/07/07 13:03:36;;;;;;;1.48;1.20;;;22.20;1.00;;;;;;5112778;27;20059;-70
2021/07/07 13:06:25;;;;;;;3.17;1.35;;;22.90;1.00;;;;;;5093172;27;20383;-70
2021/07/07 13:09:19;;;;;;;3.13;1.38;;;23.30;1.00;;;;;;5113904;27;20051;-70
2021/07/07 13:12:09;;;;;;;3.55;1.42;;;23.70;1.00;;;;;;5108192;27;20043;-71
2021/07/07 13:14:58;;;;;;;3.90;1.60;;;23.00;1.00;;;;;;5107242;27;20175;-71
2021/07/07 13:17:59;;;;;;;2.78;1.42;;;22.60;1.00;;;;;;5110998;27;20089;-71
2021/07/07 13:20:58;;;;;;;2.50;1.25;;;23.20;1.00;;;;;;5109902;27;20050;-71
2021/07/07 13:23:50;;;;;;;4.00;1.40;;;23.50;1.00;;;;;;5096413;27;20039;-71
2021/07/07 13:26:41;;;;;;;3.20;1.33;;;23.30;1.00;;;;;;5113440;27;20040;-72
2021/07/07 13:29:32;;;;;;;10.25;7.10;;;22.50;1.00;;;;;;5110112;27;20514;-72
2021/07/07 13:32:22;;;;;;;3.42;1.65;;;23.10;1.00;;;;;;5104596;27;20047;-70
2021/07/07 13:35:12;;;;;;;2.55;1.20;;;22.00;1.00;;;;;;5102545;27;20043;-71
2021/07/07 13:38:10;;;;;;;1.90;1.20;;;22.70;1.00;;;;;;5108804;27;20052;-71
2021/07/07 13:40:59;;;;;;;2.28;1.30;;;23.30;1.00;;;;;;5109091;27;20040;-70
2021/07/07 13:43:47;;;;;;;3.50;1.67;;;22.90;1.00;;;;;;5109683;27;20043;-72
2021/07/07 13:46:36;;;;;;;3.50;1.23;;;23.60;1.00;;;;;;5106050;27;20046;-71
2021/07/07 13:49:24;;;;;;;4.97;1.50;;;24.10;1.00;;;;;;5109290;27;20056;-71
2021/07/07 13:52:13;;;;;;;2.45;1.30;;;23.60;1.00;;;;;;5106247;27;20047;-72
2021/07/07 13:55:03;;;;;;;2.67;1.60;;;24.10;1.00;;;;;;5107489;27;20040;-71
2021/07/07 13:57:51;;;;;;;2.33;1.13;;;24.20;1.00;;;;;;5105609;27;20035;-70
2021/07/07 14:00:40;;;;;;;3.58;1.40;;;24.30;1.00;;;;;;5102965;27;20052;-71
2021/07/07 14:03:28;;;;;;;4.53;3.22;;;23.90;1.00;;;;;;5108236;27;20058;-71
2021/07/07 14:06:17;;;;;;;5.03;1.40;;;24.70;1.00;;;;;;5112172;27;20046;-71
2021/07/07 14:09:06;;;;;;;1.50;1.33;;;24.50;1.00;;;;;;5107893;27;20093;-72
2021/07/07 14:11:56;;;;;;;2.45;1.38;;;24.20;1.00;;;;;;5103597;27;20047;-72
2021/07/07 14:14:45;;;;;;;4.93;1.50;;;24.40;1.00;;;;;;5103737;27;21145;-72
2021/07/07 14:17:33;;;;;;;1.88;1.40;;;24.10;1.00;;;;;;5108393;27;20050;-72
2021/07/07 14:20:22;;;;;;;3.35;1.60;;;23.70;1.00;;;;;;5105040;27;20058;-72
2021/07/07 14:23:10;;;;;;;2.22;1.30;;;23.40;1.00;;;;;;5091027;28;20089;-71
2021/07/07 14:25:59;;;;;;;1.90;1.23;;;23.50;1.00;;;;;;5106630;27;20043;-72
2021/07/07 14:28:49;;;;;;;3.65;1.25;;;23.40;1.00;;;;;;5105400;27;20494;-72
2021/07/07 14:31:38;;;;;;;2.47;1.02;;;23.70;1.00;;;;;;5105765;28;20118;-71
2021/07/07 14:34:26;;;;;;;6.82;1.35;;;24.00;1.00;;;;;;5104965;27;20046;-71
2021/07/07 14:37:15;;;;;;;3.60;1.05;;;24.20;1.00;;;;;;5103982;28;20048;-70
2021/07/07 14:40:04;;;;;;;1.40;0.70;;;24.30;1.00;;;;;;5104024;27;20056;-72
2021/07/07 14:42:52;;;;;;;3.20;0.90;;;24.40;1.00;;;;;;5105049;28;20490;-69
2021/07/07 14:45:42;;;;;;;2.42;0.75;;;25.00;1.00;;;;;;5107119;28;20131;-70
2021/07/07 14:48:32;;;;;;;1.85;0.98;;;24.10;1.00;;;;;;5083380;28;20876;-72